sim
Sign-in with your pilot id or email,
or register
Callsign
Passwort

Schedule Details

Flight Number: DLH1957 (1)
Departure: Ancona Airport (LIPY) at 08:40
Arrival: Munich Airport (EDDM) at 09:55
Route: Lufthansa Passenger Schedule. Enter filed route here before submitting Pirep.

Weather Information
Getting current METAR information for LIPY 210450Z AUTO 18003KT 120V220 9999 FEW100 BKN130 19/19 Q1015
Getting current METAR information for EDDM 210450Z 06002KT 9999 1500NE R08L/0900U BCFG NSC 07/07 Q1016 NOSIG

Schedule Frequency

Route Map